Latest Observation

25 Stations

15 Minute Data | America/Los_Angeles
as of 9/6/26 3:41 PM PDT
Station Date Time Temp (°F) RH (%) Dew Pt (°F) Wind Spd (mph) Wind Dir (°) Wind Gust (mph) Latest Rain (In) Daily Rain (In) Daily Min Temp (°F) Daily Max Temp (°F)
Rockpile Upper (Cooley) 9/6/26 1530 74.3   1.9 28   11 39.4   7.0 5.5   3.2 NW | 318 16.7   0.4 0.00 0.00 47.0   1.8 75.6   1.3
Rockpile Lower (Cooley) 9/6/26 1515 75.7   0.7 26   13 38.0   9.9 8.8   1.1 W | 277 15.2   0.8 0.00 0.00 48.8   3.0 78.3   0.8
Cloverdale-East (Ranch 83) 9/6/26 1530 84.3   1.9 - - 3.6   1.6 WNW | 283 10.8   0.7 0.00 0.00 40.8   9.8 85.2   2.1
Cloverdale-SE (Ranch 38) 9/6/26 1530 81.9   2.4 27   7 44.6   4.0 5.6   5.4 WNW | 289 12.2   6.6 0.00 0.00 47.3   5.5 84.1   3.2
Geyserville-North (Hoffman) 9/6/26 1530 84.8   3.2 25   10 45.0   6.5 3.8   0.1 NW | 314 9.4   0.2 0.00 0.00 41.2   3.1 85.9   3.1
Geyserville (Ranch 3) 9/6/26 1530 83.7   2.3 19   10 37.2   9.0 2.9   1.6 WNW | 299 8.2   1.8 0.00 0.00 42.8   1.9 84.0   2.3
Geyserville-East (Ranch 40) 9/6/26 1530 82.2   4.6 24   10 42.2   5.4 4.7   6.3 WSW | 244 9.4   10.5 0.00 0.00 48.3   1.9 85.2   4.8
Geyserville-South (Nervo Station) 9/6/26 1530 84.5   5.8 - - 2.2   4.3 N | 358 8.1   4.0 0.00 0.00 46.1   2.4 85.0   4.5
Peterson (Ranch 09) 9/6/26 1530 83.7   4.6 19   12 37.6   8.8 2.9   3.9 WSW | 252 8.0   4.7 0.00 0.00 42.1   0.5 84.2   3.6
Crazy Creek Ranch 9/6/26 1530 83.8   3.1 24   11 42.8   7.8 5.6   0.5 WNW | 303 10.7   2.6 0.00 0.00 43.0   1.1 83.9   1.9
Whitton Ranch (201e) 9/6/26 1530 83.7   2.1 20   11 38.7   9.6 2.7   2.0 NNW | 332 6.7   3.6 0.00 0.00 37.3   3.1 84.3   2.1
Lytton East (Shop Hill Bottom) 9/6/26 1530 82.7   3.5 29   3 47.0   0.3 4.4   2.5 SSE | 156 9.7   3.2 0.00 0.00 44.3   0.5 83.3   2.7
Lytton East (Hill 5) 9/6/26 1530 81.7   2.8 30   2 47.5   0.3 6.8   2.7 S | 176 12.3   2.8 0.00 0.00 45.6   1.6 82.8   1.8
Lytton West Lower (Lew 6) 9/6/26 1530 82.4   3.0 30   2 48.0   1.2 4.9   3.5 SSE | 157 9.1   4.8 0.00 0.00 45.8   0.7 83.6   2.7
Lytton West Hill (23PS) 9/6/26 1530 81.7   2.1 30   1 47.6   1.4 5.2   0.5 S | 178 9.6   3.8 0.00 0.00 46.0   2.6 82.8   2.8
Big River 9/6/26 1530 81.4   3.8 34   3 50.5   1.2 3.0   2.4 SSW | 201 6.3   7.5 0.00 0.00 46.9   1.1 81.9   2.7
Jimtown-North (Piccolo Ranch 15) 9/6/26 1530 83.2   2.7 24   4 43.0   2.1 3.3   1.0 SW | 222 9.2   4.8 0.00 0.00 43.1   0.4 84.1   2.4
HWY 128/Chalk Hill Rd (Landslide) 9/6/26 1500 82.7   1.7 30   2 48.2   3.2 4.2   1.9 S | 183 8.1   6.8 0.00 0.00 41.7   2.1 84.1   1.7
N Chalk Hill Rd (Ranch 63) 9/6/26 1530 82.5   3.8 27   5 45.2   0.8 2.4   3.9 WSW | 256 7.9   4.5 0.00 0.00 42.1   0.6 82.7   2.8
Newman Knights Valley 8/18/26 0015 56.2   1.8 85   4 51.7   0.4 0.8   3.5 NE | 55 2.3   5.8 0.00 0.00 55.0   1.2 88.3   0.6
Knights Valley (Bavarian Lion) 9/6/26 1530 82.0   3.5 27   0 44.6   2.9 4.3   1.6 WSW | 258 9.8   3.7 0.00 0.00 37.3   3.8 82.7   2.6
Red Tail 9/6/26 1530 82.3   3.6 35   1 52.0   4.1 5.0   1.5 SW | 227 10.7   2.1 0.00 0.00 41.8   3.3 83.7   3.2
Franz Valley (Stornetta) 9/6/26 1530 81.9   4.1 28   0 45.6   3.4 2.3   1.6 WSW | 245 8.4   2.8 0.00 0.00 39.1   2.7 82.5   3.4
Upper Dry Creek Valley 9/6/26 1500 82.6   2.0 21   11 39.1   8.8 3.7   1.8 WNW | 302 8.7   4.0 0.00 0.00 42.0   2.9 83.5   1.3
Lower Dry Creek Valley 9/6/26 1530 82.7   4.1 29   2 47.5   1.6 2.0   3.1 SE | 139 8.4   3.2 0.00 0.00 42.3   4.4 83.3   2.7
Max     84.8 35 52.0 8.8 - 16.7 0.00 0.00 48.8 85.9
Avg     82.2 27 44.2 4.2 - 9.7 0.00 - - -
Min     74.3 19 37.2 2.0 - 6.3 0.00 0.00 37.3 75.6